map of KORB home
KORB - Airport
Location
City:  Orr, Minnesota, United States
Name:Orr Regional
ICAO:KORB
FAA LID:ORB

Details
Type:Airport (Airfield)
Use:Public/Civil
Latitude:4800'57"N (48.015917)
Longitude:9251'22"W (-92.856055)
Datum:WGS 1984
Elevation:1312 ft (400 m)
Variation:0.53W (WMM2015 magnetic declination)
-0.06 annual change
Runways:1
Longest:4000 × 75 ft (1219 × 23 m), paved

Time
Time Zone:UTC-6 (DST-5)
Local Time:

Weather
METAR:KORB 201133Z AUTO 14004KT 10SM CLR M07/M09 A2957 RMK AO2

Related Locations
Nearby:
Farthest:YWKS: 10873 mi / 17499 km
Wilkins Runway (Casey), Upper Peterson Glacier, AQ

Find:

   beyond  
but within

Other Information
Maps:
NOTAMs:
Links:
Sources:

  
flag of United States
flag of Minnesota
  

Sectional Chart

Flight Planning
at skyvector.com

Satellite Image

Google Maps Satellite view

 

Copyright © 2004-2017 Karl L. Swartz. All rights reserved.
The Great Circle Mapper name and logo are trademarks of the Great Circle Mapper.
All other trademarks mentioned herein belong to their respective owners.
Please see credits for attibutions and further copyright information.

  Follow gcmap on Facebook Follow gcmap on Twitter Follow gcmap on Google+ GCmap on LinkedIn

hCard Microformat

Geo Microformat